createdAt,value
2023-03-20T00:01:00.733Z,91.73
2023-03-20T00:03:28.771Z,86.33
2023-03-20T00:05:58.273Z,81.63
2023-03-20T00:08:28.614Z,69.00
2023-03-20T00:10:57.641Z,73.43
2023-03-20T00:13:28.525Z,64.33
2023-03-20T00:15:56.669Z,69.33
2023-03-20T00:18:26.646Z,86.03
2023-03-20T00:20:54.747Z,83.10
2023-03-20T00:23:24.286Z,94.73
2023-03-20T00:25:53.674Z,82.60
2023-03-20T00:28:39.056Z,102.97
2023-03-20T00:31:15.380Z,91.87
2023-03-20T00:33:43.360Z,109.20
2023-03-20T00:36:11.826Z,110.70
2023-03-20T00:38:41.165Z,326.83
2023-03-20T00:41:23.109Z,212.47
2023-03-20T00:43:54.464Z,245.00
2023-03-20T00:46:22.723Z,210.10
2023-03-20T00:48:51.652Z,215.23
2023-03-20T00:51:20.013Z,301.93
2023-03-20T00:53:49.392Z,272.40
2023-03-20T00:56:32.719Z,251.33
2023-03-20T00:59:02.269Z,222.27
2023-03-20T01:01:31.405Z,163.07
2023-03-20T01:03:59.552Z,203.87
2023-03-20T01:06:28.910Z,192.27
2023-03-20T01:08:58.783Z,186.30
2023-03-20T01:11:26.964Z,181.70
2023-03-20T01:13:54.985Z,174.33
2023-03-20T01:16:24.777Z,156.70
2023-03-20T01:18:53.719Z,169.20
2023-03-20T01:21:22.395Z,155.30
2023-03-20T01:23:51.188Z,167.13
2023-03-20T01:26:25.195Z,172.10
2023-03-20T01:28:53.493Z,130.97
2023-03-20T01:31:21.594Z,139.70
2023-03-20T01:33:49.632Z,136.00
2023-03-20T01:36:22.260Z,137.10
2023-03-20T01:38:55.700Z,129.30
2023-03-20T01:41:27.144Z,143.30
2023-03-20T01:43:55.368Z,132.20
2023-03-20T01:46:25.914Z,124.10
2023-03-20T01:49:09.192Z,101.90
2023-03-20T01:51:37.919Z,81.33
2023-03-20T01:54:08.927Z,92.07
2023-03-20T01:56:42.250Z,91.43
2023-03-20T01:59:14.321Z,100.57
2023-03-20T02:01:43.558Z,106.53
2023-03-20T02:04:13.098Z,99.37
2023-03-20T02:06:41.842Z,88.57
2023-03-20T02:09:10.555Z,86.73
2023-03-20T02:11:41.357Z,78.33
2023-03-20T02:14:10.620Z,81.23
2023-03-20T02:16:38.624Z,80.07
2023-03-20T02:19:09.832Z,73.37
2023-03-20T02:22:20.184Z,77.10
2023-03-20T02:25:15.432Z,151.83
2023-03-20T02:28:00.398Z,151.43
2023-03-20T02:30:51.584Z,84.23
2023-03-20T02:34:11.841Z,77.20
2023-03-20T02:37:07.658Z,72.93
2023-03-20T02:39:52.464Z,76.13
2023-03-20T02:42:27.700Z,79.23
2023-03-20T02:45:05.452Z,80.43
2023-03-20T02:47:42.422Z,76.73
2023-03-20T02:50:15.671Z,79.37
2023-03-20T02:52:49.996Z,73.63
2023-03-20T02:55:29.143Z,66.23
2023-03-20T02:58:03.048Z,74.97
2023-03-20T03:00:36.643Z,67.90
2023-03-20T03:03:08.879Z,63.80
2023-03-20T03:05:41.547Z,59.90
2023-03-20T03:08:13.879Z,66.97
2023-03-20T03:10:46.462Z,63.97
2023-03-20T03:13:18.139Z,73.57
2023-03-20T03:15:48.724Z,64.80
2023-03-20T03:18:20.675Z,74.00
2023-03-20T03:20:51.360Z,76.27
2023-03-20T03:23:29.565Z,69.13
2023-03-20T03:26:02.200Z,67.67
2023-03-20T03:28:37.250Z,70.57
2023-03-20T03:31:08.373Z,73.33
2023-03-20T03:33:40.644Z,64.57
2023-03-20T03:36:18.371Z,76.10
2023-03-20T03:38:53.149Z,74.37
2023-03-20T03:41:28.509Z,73.73
2023-03-20T03:44:06.246Z,82.73
2023-03-20T03:46:44.626Z,75.17
2023-03-20T03:49:17.422Z,72.40
2023-03-20T03:51:50.541Z,79.23
2023-03-20T03:54:21.714Z,79.33
2023-03-20T03:56:52.463Z,81.43
2023-03-20T03:59:24.269Z,76.67
2023-03-20T04:01:53.647Z,79.90
2023-03-20T04:04:23.275Z,76.03
2023-03-20T04:06:51.394Z,69.30
2023-03-20T04:09:19.440Z,70.90
2023-03-20T04:11:53.346Z,64.43
2023-03-20T04:14:21.639Z,72.30
2023-03-20T04:16:49.662Z,72.37
2023-03-20T04:19:17.641Z,74.43
2023-03-20T04:21:46.002Z,65.10
2023-03-20T04:24:15.305Z,73.80
2023-03-20T04:26:43.530Z,67.77
2023-03-20T04:29:13.535Z,75.27
2023-03-20T04:31:41.578Z,72.13
2023-03-20T04:34:09.611Z,68.17
2023-03-20T04:36:38.027Z,71.90
2023-03-20T04:39:06.291Z,69.77
2023-03-20T04:41:34.637Z,67.87
2023-03-20T04:44:03.215Z,74.63
2023-03-20T04:46:32.582Z,81.17
2023-03-20T04:49:00.823Z,81.20
2023-03-20T04:51:28.851Z,72.73
2023-03-20T04:53:56.822Z,69.83
2023-03-20T04:56:24.818Z,69.73
2023-03-20T04:58:52.910Z,75.07
2023-03-20T05:01:21.310Z,64.93
2023-03-20T05:03:50.884Z,66.10
2023-03-20T05:06:18.907Z,73.83
2023-03-20T05:08:46.903Z,72.67
2023-03-20T05:11:14.897Z,71.63
2023-03-20T05:13:42.900Z,63.20
2023-03-20T05:16:11.408Z,71.70
2023-03-20T05:18:39.551Z,67.67
2023-03-20T05:21:09.650Z,63.87
2023-03-20T05:23:37.752Z,63.07
2023-03-20T05:26:06.677Z,64.13
2023-03-20T05:28:35.078Z,65.60
2023-03-20T05:31:03.121Z,63.43
2023-03-20T05:33:31.533Z,64.83
2023-03-20T05:35:59.717Z,73.93
2023-03-20T05:38:29.233Z,65.57
2023-03-20T05:41:00.867Z,64.67
2023-03-20T05:43:29.381Z,65.57
2023-03-20T05:45:57.879Z,67.03
2023-03-20T05:48:26.156Z,61.93
2023-03-20T05:50:54.155Z,66.40
2023-03-20T05:53:22.167Z,68.40
2023-03-20T05:55:51.500Z,65.43
2023-03-20T05:58:19.827Z,57.97
2023-03-20T06:00:47.805Z,60.87
2023-03-20T06:03:16.024Z,60.37
2023-03-20T06:05:45.602Z,63.67
2023-03-20T06:08:13.983Z,59.10
2023-03-20T06:10:42.026Z,63.50
2023-03-20T06:13:11.534Z,59.50
2023-03-20T06:15:39.861Z,56.90
2023-03-20T06:18:08.074Z,71.97
2023-03-20T06:20:36.403Z,65.77
2023-03-20T06:23:04.687Z,65.93
2023-03-20T06:25:32.711Z,61.80
2023-03-20T06:28:00.960Z,62.57
2023-03-20T06:30:30.537Z,66.70
2023-03-20T06:32:59.466Z,68.23
2023-03-20T06:35:31.299Z,59.03
2023-03-20T06:37:59.527Z,61.60
2023-03-20T06:40:28.190Z,62.93
2023-03-20T06:42:56.789Z,65.60
2023-03-20T06:45:24.806Z,65.97
2023-03-20T06:47:54.220Z,64.70
2023-03-20T06:50:22.248Z,68.90
2023-03-20T06:52:50.503Z,64.60
2023-03-20T06:55:18.635Z,66.40
2023-03-20T06:57:46.673Z,64.37
2023-03-20T07:00:16.057Z,68.17
2023-03-20T07:02:44.657Z,63.17
2023-03-20T07:05:14.087Z,66.43
2023-03-20T07:07:42.490Z,63.07
2023-03-20T07:10:12.415Z,66.73
2023-03-20T07:12:40.806Z,62.43
2023-03-20T07:15:09.579Z,66.03
2023-03-20T07:17:37.600Z,62.00
2023-03-20T07:20:06.294Z,70.07
2023-03-20T07:22:35.687Z,66.80
2023-03-20T07:25:03.827Z,68.03
2023-03-20T07:27:31.959Z,63.50
2023-03-20T07:29:59.965Z,68.30
2023-03-20T07:32:28.295Z,63.83
2023-03-20T07:34:56.512Z,62.33
2023-03-20T07:37:24.489Z,66.33
2023-03-20T07:39:53.804Z,62.47
2023-03-20T07:42:21.860Z,58.43
2023-03-20T07:44:49.876Z,59.53
2023-03-20T07:47:17.864Z,58.20
2023-03-20T07:49:46.924Z,63.27
2023-03-20T07:52:14.922Z,60.60
2023-03-20T07:54:43.020Z,59.23
2023-03-20T07:57:12.479Z,68.23
2023-03-20T07:59:40.764Z,57.73
2023-03-20T08:02:08.752Z,59.70
2023-03-20T08:04:37.101Z,54.37
2023-03-20T08:07:05.689Z,55.47
2023-03-20T08:09:33.941Z,64.03
2023-03-20T08:12:02.108Z,72.93
2023-03-20T08:14:31.672Z,68.47
2023-03-20T08:17:13.910Z,67.93
2023-03-20T08:19:43.341Z,70.33
2023-03-20T08:22:11.536Z,64.93
2023-03-20T08:24:39.612Z,58.17
2023-03-20T08:27:07.858Z,65.30
2023-03-20T08:29:37.325Z,61.50
2023-03-20T08:32:05.768Z,56.63
2023-03-20T08:34:34.614Z,52.33
2023-03-20T08:37:04.858Z,49.30
2023-03-20T08:39:33.413Z,52.87
2023-03-20T08:42:01.575Z,47.63
2023-03-20T08:44:29.707Z,43.97
2023-03-20T08:46:59.096Z,39.97
2023-03-20T08:49:28.033Z,32.03
2023-03-20T08:51:56.238Z,32.87
2023-03-20T08:54:24.259Z,41.27
2023-03-20T08:56:52.712Z,32.83
2023-03-20T08:59:21.201Z,30.77
2023-03-20T09:01:50.529Z,35.23
2023-03-20T09:04:20.361Z,28.73
2023-03-20T09:06:49.219Z,27.97
2023-03-20T09:09:19.933Z,31.47
2023-03-20T09:11:48.010Z,27.03
2023-03-20T09:14:16.173Z,28.33
2023-03-20T09:16:44.380Z,26.50
2023-03-20T09:19:12.496Z,33.23
2023-03-20T09:21:41.844Z,35.03
2023-03-20T09:24:10.132Z,32.83
2023-03-20T09:26:38.387Z,27.57
2023-03-20T09:29:07.320Z,28.43
2023-03-20T09:31:35.399Z,27.07
2023-03-20T09:34:03.482Z,30.03
2023-03-20T09:36:31.687Z,32.70
2023-03-20T09:39:01.099Z,34.17
2023-03-20T09:41:45.806Z,34.57
2023-03-20T09:44:41.657Z,33.50
2023-03-20T09:47:21.065Z,26.83
2023-03-20T09:50:03.191Z,29.67
2023-03-20T09:52:34.102Z,25.13
2023-03-20T09:55:07.968Z,25.00
2023-03-20T09:57:41.356Z,26.27
2023-03-20T10:00:16.513Z,30.37
2023-03-20T10:02:50.920Z,27.07
2023-03-20T10:05:24.206Z,30.43
2023-03-20T10:07:52.676Z,29.63
2023-03-20T10:10:24.685Z,26.17
2023-03-20T10:13:03.272Z,25.63
2023-03-20T10:15:44.922Z,23.00
2023-03-20T10:18:20.981Z,25.50
2023-03-20T10:20:56.474Z,24.80
2023-03-20T10:23:31.740Z,26.53
2023-03-20T10:26:07.580Z,28.57
2023-03-20T10:28:41.172Z,26.97
2023-03-20T10:31:29.657Z,29.20
2023-03-20T10:34:12.145Z,23.10
2023-03-20T10:36:52.225Z,25.27
2023-03-20T10:39:33.474Z,25.50
2023-03-20T10:42:06.866Z,25.77
2023-03-20T10:44:38.573Z,24.83
2023-03-20T10:47:11.033Z,20.80
2023-03-20T10:49:43.325Z,23.47
2023-03-20T10:52:15.511Z,19.60
2023-03-20T10:54:46.510Z,18.20
2023-03-20T10:57:21.922Z,18.20
2023-03-20T10:59:51.467Z,19.77
2023-03-20T11:02:22.039Z,17.53
2023-03-20T11:04:50.372Z,15.20
2023-03-20T11:07:26.398Z,17.60
2023-03-20T11:10:12.614Z,15.53
2023-03-20T11:12:44.763Z,15.13
2023-03-20T11:15:25.141Z,16.27
2023-03-20T11:17:58.081Z,16.03
2023-03-20T11:20:28.159Z,13.90
2023-03-20T11:23:02.124Z,20.17
2023-03-20T11:25:33.388Z,13.93
2023-03-20T11:28:33.889Z,14.87
2023-03-20T11:31:05.853Z,16.93
2023-03-20T11:33:38.364Z,14.20
2023-03-20T11:36:13.804Z,15.27
2023-03-20T11:38:46.475Z,15.20
2023-03-20T11:41:26.818Z,13.70
2023-03-20T11:43:56.309Z,18.20
2023-03-20T11:46:26.000Z,14.63
2023-03-20T11:49:08.760Z,15.13
2023-03-20T11:51:38.227Z,15.00
2023-03-20T11:54:09.059Z,13.17
2023-03-20T11:56:38.058Z,15.40
2023-03-20T11:59:15.497Z,15.30
2023-03-20T12:01:47.254Z,14.63
2023-03-20T12:04:17.951Z,14.23
2023-03-20T12:06:54.621Z,17.07
2023-03-20T12:09:40.432Z,12.63
2023-03-20T12:12:15.521Z,12.53
2023-03-20T12:14:54.433Z,10.93
2023-03-20T12:17:33.671Z,12.63
2023-03-20T12:20:14.022Z,9.93
2023-03-20T12:22:51.077Z,10.43
2023-03-20T12:25:24.140Z,10.70
2023-03-20T12:27:59.012Z,9.27
2023-03-20T12:30:37.524Z,10.10
2023-03-20T12:33:09.354Z,9.83
2023-03-20T12:35:42.693Z,10.03
2023-03-20T12:38:23.943Z,8.23
2023-03-20T12:40:56.568Z,8.67
2023-03-20T12:43:28.264Z,8.40
2023-03-20T12:46:10.420Z,8.63
2023-03-20T12:48:57.950Z,8.30
2023-03-20T12:51:36.441Z,10.60
2023-03-20T12:54:20.644Z,11.10
2023-03-20T12:57:04.269Z,9.13
2023-03-20T12:59:46.574Z,10.87
2023-03-20T13:02:27.741Z,8.20
2023-03-20T13:05:05.532Z,12.50
2023-03-20T13:07:50.273Z,9.10
2023-03-20T13:10:22.444Z,7.43
2023-03-20T13:13:06.233Z,7.80
2023-03-20T13:15:48.489Z,8.17
2023-03-20T13:18:23.536Z,8.97
2023-03-20T13:20:53.361Z,7.50
2023-03-20T13:23:27.314Z,8.00
2023-03-20T13:26:14.106Z,7.43
2023-03-20T13:28:50.349Z,7.97
2023-03-20T13:31:27.508Z,8.40
2023-03-20T13:34:03.481Z,6.57
2023-03-20T13:36:46.944Z,6.07
2023-03-20T13:39:23.229Z,8.23
2023-03-20T13:41:52.281Z,6.27
2023-03-20T13:44:24.124Z,6.93
2023-03-20T13:46:55.907Z,7.67
2023-03-20T13:49:30.928Z,6.27
2023-03-20T13:52:04.542Z,7.53
2023-03-20T13:54:47.843Z,7.27
2023-03-20T13:57:27.260Z,8.47
2023-03-20T14:00:08.420Z,8.43
2023-03-20T14:02:49.611Z,8.07
2023-03-20T14:05:22.434Z,6.60
2023-03-20T14:07:55.924Z,7.17
2023-03-20T14:10:38.219Z,6.60
2023-03-20T14:13:15.944Z,7.17
2023-03-20T14:15:50.693Z,6.10
2023-03-20T14:18:19.719Z,5.97
2023-03-20T14:20:56.565Z,6.33
2023-03-20T14:23:35.240Z,6.70
2023-03-20T14:26:09.250Z,8.83
2023-03-20T14:28:53.026Z,5.20
2023-03-20T14:31:25.151Z,6.23
2023-03-20T14:34:01.813Z,6.53
2023-03-20T14:36:44.936Z,7.97
2023-03-20T14:39:21.757Z,8.40
2023-03-20T14:42:01.699Z,9.30
2023-03-20T14:44:46.488Z,8.33
2023-03-20T14:47:27.389Z,7.37
2023-03-20T14:49:59.673Z,12.57
2023-03-20T14:52:41.822Z,13.03
2023-03-20T14:55:34.115Z,13.60
2023-03-20T14:58:07.551Z,11.17
2023-03-20T15:00:45.465Z,11.13
2023-03-20T15:03:17.495Z,12.93
2023-03-20T15:05:46.747Z,14.03
2023-03-20T15:08:23.238Z,11.63
2023-03-20T15:10:53.357Z,13.60
2023-03-20T15:13:22.660Z,13.87
2023-03-20T15:15:55.730Z,15.07
2023-03-20T15:18:25.800Z,11.63
2023-03-20T15:20:55.017Z,11.70
2023-03-20T15:23:26.135Z,16.33
2023-03-20T15:25:54.390Z,12.83
2023-03-20T15:28:25.392Z,17.20
2023-03-20T15:30:57.510Z,15.47
2023-03-20T15:33:29.484Z,14.43
2023-03-20T15:35:57.763Z,13.50
2023-03-20T15:38:31.456Z,15.17
2023-03-20T15:40:59.478Z,16.50
2023-03-20T15:43:29.061Z,13.97
2023-03-20T15:46:16.979Z,13.03
2023-03-20T15:48:49.200Z,15.90
2023-03-20T15:51:18.096Z,11.87
2023-03-20T15:53:49.731Z,13.67
2023-03-20T15:56:21.007Z,15.80
2023-03-20T15:58:53.020Z,17.53
2023-03-20T16:01:23.363Z,16.07
2023-03-20T16:03:52.983Z,15.70
2023-03-20T16:06:22.706Z,15.67
2023-03-20T16:09:00.660Z,16.40
2023-03-20T16:11:38.030Z,15.87
2023-03-20T16:14:07.555Z,20.53
2023-03-20T16:16:37.608Z,17.53
2023-03-20T16:19:06.910Z,20.27
2023-03-20T16:21:38.082Z,20.67
2023-03-20T16:24:11.439Z,19.60
2023-03-20T16:26:44.906Z,18.30
2023-03-20T16:29:15.664Z,20.13
2023-03-20T16:31:49.966Z,19.13
2023-03-20T16:34:21.762Z,20.37
2023-03-20T16:36:56.216Z,20.93
2023-03-20T16:39:28.714Z,21.20
2023-03-20T16:42:11.788Z,23.73
2023-03-20T16:44:42.577Z,21.97
2023-03-20T16:47:20.073Z,23.67
2023-03-20T16:50:11.176Z,24.03
2023-03-20T16:52:40.699Z,19.13
2023-03-20T16:55:17.565Z,23.20
2023-03-20T16:57:49.676Z,28.03
2023-03-20T17:00:24.427Z,20.50
2023-03-20T17:02:59.773Z,22.67
2023-03-20T17:05:43.449Z,26.43
2023-03-20T17:08:14.361Z,20.67
2023-03-20T17:10:47.020Z,27.00
2023-03-20T17:13:15.371Z,24.93
2023-03-20T17:15:43.394Z,26.30
2023-03-20T17:18:14.436Z,27.07
2023-03-20T17:20:42.957Z,23.93
2023-03-20T17:23:16.311Z,22.57
2023-03-20T17:25:45.984Z,21.90
2023-03-20T17:28:20.513Z,24.00
2023-03-20T17:30:50.304Z,21.50
2023-03-20T17:33:20.983Z,25.10
2023-03-20T17:35:49.626Z,24.17
2023-03-20T17:38:19.990Z,23.80
2023-03-20T17:40:50.814Z,21.57
2023-03-20T17:43:20.577Z,22.53
2023-03-20T17:45:48.954Z,22.97
2023-03-20T17:48:20.736Z,26.07
2023-03-20T17:50:50.760Z,24.77
2023-03-20T17:53:21.939Z,25.00
2023-03-20T17:55:51.672Z,29.47
2023-03-20T17:58:22.550Z,24.93
2023-03-20T18:00:51.196Z,24.03
2023-03-20T18:03:20.080Z,23.97
2023-03-20T18:05:51.076Z,23.83
2023-03-20T18:08:22.231Z,24.33
2023-03-20T18:10:53.100Z,28.03
2023-03-20T18:13:21.906Z,26.33
2023-03-20T18:15:51.674Z,24.57
2023-03-20T18:18:22.533Z,25.50
2023-03-20T18:20:52.301Z,26.77
2023-03-20T18:23:20.283Z,22.50
2023-03-20T18:25:48.684Z,27.07
2023-03-20T18:28:22.865Z,29.10
2023-03-20T18:30:51.684Z,23.53
2023-03-20T18:33:25.376Z,25.33
2023-03-20T18:35:53.590Z,33.37
2023-03-20T18:38:24.663Z,27.33
2023-03-20T18:40:52.816Z,27.20
2023-03-20T18:43:22.390Z,27.73
2023-03-20T18:45:50.556Z,27.03
2023-03-20T18:48:18.607Z,24.60
2023-03-20T18:50:50.989Z,31.43
2023-03-20T18:53:19.738Z,31.73
2023-03-20T18:55:47.757Z,27.50
2023-03-20T18:58:23.725Z,27.87
2023-03-20T19:00:53.899Z,31.10
2023-03-20T19:03:24.574Z,29.83
2023-03-20T19:05:53.543Z,32.43
2023-03-20T19:08:22.289Z,30.30
2023-03-20T19:10:51.195Z,30.97
2023-03-20T19:13:21.020Z,33.50
2023-03-20T19:15:50.576Z,38.13
2023-03-20T19:18:22.011Z,48.03
2023-03-20T19:20:51.054Z,39.53
2023-03-20T19:23:20.779Z,40.73
2023-03-20T19:25:50.999Z,35.97
2023-03-20T19:28:21.992Z,34.50
2023-03-20T19:30:57.392Z,40.47
2023-03-20T19:33:25.361Z,38.57
2023-03-20T19:36:08.942Z,33.47
2023-03-20T19:38:37.414Z,33.90
2023-03-20T19:41:05.786Z,32.90
2023-03-20T19:43:33.772Z,33.07
2023-03-20T19:46:03.378Z,22.40
2023-03-20T19:48:49.803Z,20.10
2023-03-20T19:51:20.803Z,18.23
2023-03-20T19:53:49.448Z,19.57
2023-03-20T19:56:19.348Z,12.60
2023-03-20T19:58:48.650Z,13.60
2023-03-20T20:01:19.984Z,9.07
2023-03-20T20:03:49.789Z,8.20
2023-03-20T20:06:21.209Z,8.20
2023-03-20T20:08:49.936Z,9.50
2023-03-20T20:11:18.898Z,9.07
2023-03-20T20:14:05.290Z,7.17
2023-03-20T20:16:36.434Z,6.37
2023-03-20T20:19:05.212Z,7.17
2023-03-20T20:24:21.989Z,7.07
2023-03-20T20:26:59.923Z,6.80
2023-03-20T20:29:39.406Z,5.20
2023-03-20T20:32:08.991Z,8.87
2023-03-20T20:40:17.016Z,5.13
2023-03-20T20:42:47.597Z,8.30
2023-03-20T20:45:16.617Z,6.63
2023-03-20T20:47:47.775Z,7.53
2023-03-20T20:50:18.860Z,7.50
2023-03-20T20:52:46.909Z,7.30
2023-03-20T20:55:25.087Z,10.33
2023-03-20T20:57:55.618Z,8.17
2023-03-20T21:00:37.275Z,6.33
2023-03-20T21:03:14.945Z,7.00
2023-03-20T21:05:43.489Z,5.57
2023-03-20T21:08:14.015Z,5.77
2023-03-20T21:10:42.458Z,6.03
2023-03-20T21:13:10.587Z,6.27
2023-03-20T21:15:39.785Z,7.70
2023-03-20T21:18:08.085Z,6.37
2023-03-20T21:20:37.598Z,5.97
2023-03-20T21:23:05.682Z,5.50
2023-03-20T21:25:44.782Z,4.80
2023-03-20T21:28:14.574Z,6.73
2023-03-20T21:31:04.222Z,7.70
2023-03-20T21:33:31.831Z,7.93
2023-03-20T21:36:01.681Z,6.00
2023-03-20T21:41:18.079Z,6.60
2023-03-20T21:43:47.554Z,7.73
2023-03-20T21:46:56.641Z,7.53
2023-03-20T21:49:55.516Z,7.43
2023-03-20T21:55:15.063Z,8.27
2023-03-20T22:03:14.250Z,6.10
2023-03-20T22:31:48.285Z,6.47
2023-03-20T22:34:39.465Z,5.17
2023-03-20T22:37:30.450Z,4.40
2023-03-20T22:45:12.696Z,3.47
2023-03-20T22:47:40.791Z,3.60
2023-03-20T22:50:10.336Z,5.07
2023-03-20T22:52:48.546Z,4.47
2023-03-20T22:55:18.433Z,5.33
2023-03-20T22:58:04.046Z,6.57
2023-03-20T23:00:35.047Z,8.30
2023-03-20T23:03:17.304Z,6.87
2023-03-20T23:05:48.249Z,6.30
2023-03-20T23:08:16.313Z,4.43
2023-03-20T23:10:45.248Z,2.90
2023-03-20T23:13:15.987Z,3.33
2023-03-20T23:15:46.716Z,3.67
2023-03-20T23:18:15.012Z,3.83
2023-03-20T23:20:43.078Z,4.70
2023-03-20T23:23:11.115Z,6.67
2023-03-20T23:25:40.529Z,3.97
2023-03-20T23:28:09.362Z,4.57
2023-03-20T23:30:48.089Z,3.33
2023-03-20T23:33:19.770Z,3.83
2023-03-20T23:35:48.775Z,5.67
2023-03-20T23:38:17.785Z,5.00
2023-03-20T23:40:50.113Z,8.87
2023-03-20T23:43:18.816Z,5.20
2023-03-20T23:45:48.549Z,5.47
2023-03-20T23:48:16.940Z,4.73
2023-03-20T23:50:52.904Z,5.97
2023-03-20T23:53:21.923Z,4.37
2023-03-20T23:55:51.557Z,4.77
2023-03-20T23:58:20.720Z,5.03
